MiSS Stacie — WDF5915 — position and weather

sailwx.info

Track history (hours):
 
Tides and Currents Weather Stations Pressure Air Temp Water Temp Dewpoint Dewpoint Depression Visibility Wind Speed Wind Dir Waves Ship Positions

MiSS Stacie

Owner: Crosby Marine Transportation LLC, Golden Meadow, LA. More information available from US FCC via Universal Licensing System and Coast Guard Vessel Documentation Center.

Last reported at 2015-Apr-02 06:33 UTC. Time now 2015-Apr-02 06:39 UTC.
Position N 29°37' W 090°42'.

Length 20 m; draft 2 m.

Type: Tug. MMSI: 367468640.

Date/timePositionNaut miles runAvg speedWind from/ knotsBaromVisibWave heightAir tempDewpointWater temp
2015-Apr-02 06:33N 29°37' W 090°42'6 5.8
2015-Apr-02 05:33N 29°35' W 090°36'33 4.7
2015-Apr-01 22:33N 29°51' W 090°04'4 3.5
2015-Apr-01 21:29N 29°55' W 090°05'3 3.2
2015-Apr-01 20:30N 29°57' W 090°03'1 1.2
2015-Apr-01 19:33N 29°57' W 090°02'2 1.9
2015-Apr-01 18:32N 29°57' W 090°00'2 1.1
2015-Apr-01 16:33N 29°55' W 089°58'4 0.2
2015-Mar-31 21:29N 29°57' W 090°02'2 0.8
2015-Mar-31 19:23N 29°57' W 090°00'0 0.0
2015-Mar-31 18:10N 29°57' W 090°00'3 4.7
2015-Mar-31 17:32N 29°56' W 090°03'2 1.8
2015-Mar-31 16:33N 29°55' W 090°05'3 3.2
2015-Mar-31 15:32N 29°57' W 090°03'1 1.0
2015-Mar-31 14:29N 29°57' W 090°02'0 0.1
2015-Mar-31 13:23N 29°57' W 090°02'0 0.0
2015-Mar-31 12:25N 29°57' W 090°02'0 0.0
2015-Mar-31 11:29N 29°57' W 090°02'0 0.0
2015-Mar-31 10:33N 29°57' W 090°02'0 0.0
2015-Mar-31 09:33N 29°57' W 090°02'0 0.0
2015-Mar-31 08:33N 29°57' W 090°02'0 0.0
2015-Mar-31 07:33N 29°57' W 090°02'0 0.0
2015-Mar-31 06:30N 29°57' W 090°02'0 0.0
2015-Mar-31 05:31N 29°57' W 090°02'0 0.0
2015-Mar-31 04:32N 29°57' W 090°02'0 0.0
2015-Mar-31 03:31N 29°57' W 090°02'0 0.0
2015-Mar-31 02:27N 29°57' W 090°02'0 0.0
2015-Mar-31 01:30N 29°57' W 090°02'0 0.0
2015-Mar-31 00:20N 29°57' W 090°02'0 0.0
2015-Mar-30 23:33N 29°57' W 090°02'10 0.4
2015-Mar-30 01:18N 29°48' W 090°04'9 3.1
2015-Mar-29 22:31N 29°55' W 089°58'2 2.2
2015-Mar-29 21:26N 29°57' W 090°00'5 5.2
2015-Mar-29 20:33N 29°55' W 090°05'1 0.9
2015-Mar-29 19:33N 29°54' W 090°05'4 3.5
2015-Mar-29 18:29N 29°50' W 090°04'4 0.1
2015-Mar-28 04:25N 29°46' W 090°04'29 4.9
2015-Mar-27 22:29N 29°34' W 090°34'5 5.4
2015-Mar-27 21:33N 29°36' W 090°40'3 3.2
2015-Mar-27 20:33N 29°34' W 090°43'5 5.3
2015-Mar-27 19:33N 29°32' W 090°49'  
2015-Mar-24 19:33N 29°32' W 090°48'5 5.3
2015-Mar-24 18:33N 29°35' W 090°43'4 4.2
2015-Mar-24 17:33N 29°35' W 090°38'40 2.2
2015-Mar-23 23:30N 29°55' W 089°58'3 0.6
2015-Mar-23 19:19N 29°57' W 090°00'5 3.8
2015-Mar-23 18:04N 29°54' W 090°05'3 1.3
2015-Mar-23 15:28N 29°51' W 090°04'4 4.0
2015-Mar-23 14:33N 29°55' W 090°05'0 0.4
2015-Mar-23 13:30N 29°55' W 090°05'0 0.0
2015-Mar-23 12:31N 29°55' W 090°05'  
Track history (hours):
 
Tides and Currents Weather Stations Pressure Air Temp Water Temp Dewpoint Dewpoint Depression Visibility Wind Speed Wind Dir Waves Ship Positions

MiSS Stacie

Owner: Crosby Marine Transportation LLC, Golden Meadow, LA. More information available from US FCC via Universal Licensing System and Coast Guard Vessel Documentation Center.

Last reported at 2015-Apr-02 06:33 UTC. Time now 2015-Apr-02 06:39 UTC.
Position N 29°37' W 090°42'.

Length 20 m; draft 2 m.

Type: Tug. MMSI: 367468640.

Date/timePositionNaut miles runAvg speedWind from/ knotsBaromVisibWave heightAir tempDewpointWater temp
2015-Apr-02 06:33N 29°37' W 090°42'6 5.8
2015-Apr-02 05:33N 29°35' W 090°36'33 4.7
2015-Apr-01 22:33N 29°51' W 090°04'4 3.5
2015-Apr-01 21:29N 29°55' W 090°05'3 3.2
2015-Apr-01 20:30N 29°57' W 090°03'1 1.2
2015-Apr-01 19:33N 29°57' W 090°02'2 1.9
2015-Apr-01 18:32N 29°57' W 090°00'2 1.1
2015-Apr-01 16:33N 29°55' W 089°58'4 0.2
2015-Mar-31 21:29N 29°57' W 090°02'2 0.8
2015-Mar-31 19:23N 29°57' W 090°00'0 0.0
2015-Mar-31 18:10N 29°57' W 090°00'3 4.7
2015-Mar-31 17:32N 29°56' W 090°03'2 1.8
2015-Mar-31 16:33N 29°55' W 090°05'3 3.2
2015-Mar-31 15:32N 29°57' W 090°03'1 1.0
2015-Mar-31 14:29N 29°57' W 090°02'0 0.1
2015-Mar-31 13:23N 29°57' W 090°02'0 0.0
2015-Mar-31 12:25N 29°57' W 090°02'0 0.0
2015-Mar-31 11:29N 29°57' W 090°02'0 0.0
2015-Mar-31 10:33N 29°57' W 090°02'0 0.0
2015-Mar-31 09:33N 29°57' W 090°02'0 0.0
2015-Mar-31 08:33N 29°57' W 090°02'0 0.0
2015-Mar-31 07:33N 29°57' W 090°02'0 0.0
2015-Mar-31 06:30N 29°57' W 090°02'0 0.0
2015-Mar-31 05:31N 29°57' W 090°02'0 0.0
2015-Mar-31 04:32N 29°57' W 090°02'0 0.0
2015-Mar-31 03:31N 29°57' W 090°02'0 0.0
2015-Mar-31 02:27N 29°57' W 090°02'0 0.0
2015-Mar-31 01:30N 29°57' W 090°02'0 0.0
2015-Mar-31 00:20N 29°57' W 090°02'0 0.0
2015-Mar-30 23:33N 29°57' W 090°02'10 0.4
2015-Mar-30 01:18N 29°48' W 090°04'9 3.1
2015-Mar-29 22:31N 29°55' W 089°58'2 2.2
2015-Mar-29 21:26N 29°57' W 090°00'5 5.2
2015-Mar-29 20:33N 29°55' W 090°05'1 0.9
2015-Mar-29 19:33N 29°54' W 090°05'4 3.5
2015-Mar-29 18:29N 29°50' W 090°04'4 0.1
2015-Mar-28 04:25N 29°46' W 090°04'29 4.9
2015-Mar-27 22:29N 29°34' W 090°34'5 5.4
2015-Mar-27 21:33N 29°36' W 090°40'3 3.2
2015-Mar-27 20:33N 29°34' W 090°43'5 5.3
2015-Mar-27 19:33N 29°32' W 090°49'  
2015-Mar-24 19:33N 29°32' W 090°48'5 5.3
2015-Mar-24 18:33N 29°35' W 090°43'4 4.2
2015-Mar-24 17:33N 29°35' W 090°38'40 2.2
2015-Mar-23 23:30N 29°55' W 089°58'3 0.6
2015-Mar-23 19:19N 29°57' W 090°00'5 3.8
2015-Mar-23 18:04N 29°54' W 090°05'3 1.3
2015-Mar-23 15:28N 29°51' W 090°04'4 4.0
2015-Mar-23 14:33N 29°55' W 090°05'0 0.4
2015-Mar-23 13:30N 29°55' W 090°05'0 0.0
2015-Mar-23 12:31N 29°55' W 090°05'  

Dump ship's entire track history